sensor_id;sensor_type;location;lat;lon;timestamp;pressure;altitude;pressure_sealevel;temperature;humidity
7168;BME280;3625;51.762;14.320;2023-12-28T00:00:10;100431.69;;;4.93;100.00
7168;BME280;3625;51.762;14.320;2023-12-28T00:02:39;100432.59;;;5.01;100.00
7168;BME280;3625;51.762;14.320;2023-12-28T00:05:09;100427.31;;;5.06;100.00
7168;BME280;3625;51.762;14.320;2023-12-28T00:07:37;100370.53;;;4.76;100.00
7168;BME280;3625;51.762;14.320;2023-12-28T00:10:08;100380.13;;;4.84;100.00
7168;BME280;3625;51.762;14.320;2023-12-28T00:12:37;100420.31;;;5.14;100.00
7168;BME280;3625;51.762;14.320;2023-12-28T00:15:07;100420.34;;;5.18;100.00
7168;BME280;3625;51.762;14.320;2023-12-28T00:17:36;100422.09;;;5.16;100.00
7168;BME280;3625;51.762;14.320;2023-12-28T00:20:07;100404.63;;;5.00;100.00
7168;BME280;3625;51.762;14.320;2023-12-28T00:22:35;100344.34;;;4.67;100.00
7168;BME280;3625;51.762;14.320;2023-12-28T00:25:07;100421.22;;;5.05;100.00
7168;BME280;3625;51.762;14.320;2023-12-28T00:27:36;100389.75;;;4.88;100.00
7168;BME280;3625;51.762;14.320;2023-12-28T00:30:07;100395.00;;;4.88;100.00
7168;BME280;3625;51.762;14.320;2023-12-28T00:32:36;100413.31;;;5.02;100.00
7168;BME280;3625;51.762;14.320;2023-12-28T00:35:07;100406.38;;;5.01;100.00
7168;BME280;3625;51.762;14.320;2023-12-28T00:37:36;100402.00;;;5.00;100.00
7168;BME280;3625;51.762;14.320;2023-12-28T00:40:08;100399.34;;;5.05;100.00
7168;BME280;3625;51.762;14.320;2023-12-28T00:42:37;100401.09;;;5.06;100.00
7168;BME280;3625;51.762;14.320;2023-12-28T00:45:09;100332.09;;;4.67;100.00
7168;BME280;3625;51.762;14.320;2023-12-28T00:47:38;100397.59;;;5.02;100.00
7168;BME280;3625;51.762;14.320;2023-12-28T00:50:07;100394.13;;;5.05;100.00
7168;BME280;3625;51.762;14.320;2023-12-28T00:52:36;100383.63;;;5.06;100.00
7168;BME280;3625;51.762;14.320;2023-12-28T00:55:07;100380.16;;;5.09;100.00
7168;BME280;3625;51.762;14.320;2023-12-28T00:57:36;100374.88;;;5.06;100.00
7168;BME280;3625;51.762;14.320;2023-12-28T01:00:07;100382.75;;;5.04;100.00
7168;BME280;3625;51.762;14.320;2023-12-28T01:02:36;100376.63;;;5.04;100.00
7168;BME280;3625;51.762;14.320;2023-12-28T01:05:05;100369.63;;;5.03;100.00
7168;BME280;3625;51.762;14.320;2023-12-28T01:07:34;100366.13;;;5.02;100.00
7168;BME280;3625;51.762;14.320;2023-12-28T01:10:03;100374.00;;;5.02;100.00
7168;BME280;3625;51.762;14.320;2023-12-28T01:12:34;100367.03;;;5.04;100.00
7168;BME280;3625;51.762;14.320;2023-12-28T01:15:03;100325.97;;;4.85;100.00
7168;BME280;3625;51.762;14.320;2023-12-28T01:17:32;100349.56;;;5.00;100.00
7168;BME280;3625;51.762;14.320;2023-12-28T01:20:01;100347.78;;;5.02;100.00
7168;BME280;3625;51.762;14.320;2023-12-28T01:22:31;100271.84;;;4.70;100.00
7168;BME280;3625;51.762;14.320;2023-12-28T01:24:59;100321.63;;;4.84;100.00
7168;BME280;3625;51.762;14.320;2023-12-28T01:27:28;100355.66;;;5.08;100.00
7168;BME280;3625;51.762;14.320;2023-12-28T01:29:58;100349.53;;;5.06;100.00
7168;BME280;3625;51.762;14.320;2023-12-28T01:32:28;100331.19;;;5.05;100.00
7168;BME280;3625;51.762;14.320;2023-12-28T01:34:56;100339.94;;;5.04;100.00
7168;BME280;3625;51.762;14.320;2023-12-28T01:37:25;100297.16;;;4.77;100.00
7168;BME280;3625;51.762;14.320;2023-12-28T01:39:58;100239.56;;;4.44;100.00
7168;BME280;3625;51.762;14.320;2023-12-28T01:42:26;100323.34;;;4.96;100.00
7168;BME280;3625;51.762;14.320;2023-12-28T01:44:58;100304.13;;;4.86;100.00
7168;BME280;3625;51.762;14.320;2023-12-28T01:47:29;100289.31;;;4.68;100.00
7168;BME280;3625;51.762;14.320;2023-12-28T01:50:00;100331.22;;;4.91;100.00
7168;BME280;3625;51.762;14.320;2023-12-28T01:52:29;100328.59;;;4.91;100.00
7168;BME280;3625;51.762;14.320;2023-12-28T01:55:01;100328.59;;;4.86;100.00
7168;BME280;3625;51.762;14.320;2023-12-28T01:57:30;100318.97;;;4.85;100.00
7168;BME280;3625;51.762;14.320;2023-12-28T02:00:01;100319.88;;;4.83;100.00
7168;BME280;3625;51.762;14.320;2023-12-28T02:02:39;100319.84;;;4.84;100.00
7168;BME280;3625;51.762;14.320;2023-12-28T02:05:09;100306.78;;;4.83;100.00
7168;BME280;3625;51.762;14.320;2023-12-28T02:07:39;100279.72;;;4.72;100.00
7168;BME280;3625;51.762;14.320;2023-12-28T02:10:08;100245.69;;;4.47;100.00
7168;BME280;3625;51.762;14.320;2023-12-28T02:12:37;100304.13;;;4.86;100.00
7168;BME280;3625;51.762;14.320;2023-12-28T02:15:09;100304.16;;;4.83;100.00
7168;BME280;3625;51.762;14.320;2023-12-28T02:17:47;100308.53;;;4.81;100.00
7168;BME280;3625;51.762;14.320;2023-12-28T02:20:17;100279.72;;;4.66;100.00
7168;BME280;3625;51.762;14.320;2023-12-28T02:22:47;100314.63;;;4.80;100.00
7168;BME280;3625;51.762;14.320;2023-12-28T02:25:18;100317.25;;;4.80;100.00
7168;BME280;3625;51.762;14.320;2023-12-28T02:27:49;100282.34;;;4.58;100.00
7168;BME280;3625;51.762;14.320;2023-12-28T02:30:21;100319.88;;;4.72;100.00
7168;BME280;3625;51.762;14.320;2023-12-28T02:33:02;100320.75;;;4.70;100.00
7168;BME280;3625;51.762;14.320;2023-12-28T02:35:42;100199.47;;;4.05;100.00
7168;BME280;3625;51.762;14.320;2023-12-28T02:38:14;100303.31;;;4.64;100.00
7168;BME280;3625;51.762;14.320;2023-12-28T02:40:47;100311.16;;;4.66;100.00
7168;BME280;3625;51.762;14.320;2023-12-28T02:43:16;100313.78;;;4.64;100.00
7168;BME280;3625;51.762;14.320;2023-12-28T02:45:45;100310.28;;;4.64;100.00
7168;BME280;3625;51.762;14.320;2023-12-28T02:48:14;100253.56;;;4.40;100.00
7168;BME280;3625;51.762;14.320;2023-12-28T02:50:43;100271.00;;;4.58;100.00
7168;BME280;3625;51.762;14.320;2023-12-28T02:53:13;100141.91;;;3.89;100.00
7168;BME280;3625;51.762;14.320;2023-12-28T02:55:42;100271.84;;;4.73;100.00
7168;BME280;3625;51.762;14.320;2023-12-28T02:58:14;100277.06;;;4.76;100.00
7168;BME280;3625;51.762;14.320;2023-12-28T03:00:42;100288.44;;;4.83;100.00
7168;BME280;3625;51.762;14.320;2023-12-28T03:03:11;100290.16;;;4.88;100.00
7168;BME280;3625;51.762;14.320;2023-12-28T03:05:40;100273.56;;;4.86;100.00
7168;BME280;3625;51.762;14.320;2023-12-28T03:08:09;100243.06;;;4.66;100.00
7168;BME280;3625;51.762;14.320;2023-12-28T03:10:39;100259.63;;;4.75;100.00
7168;BME280;3625;51.762;14.320;2023-12-28T03:13:08;100260.47;;;4.83;100.00
7168;BME280;3625;51.762;14.320;2023-12-28T03:15:38;100292.72;;;5.14;100.00
7168;BME280;3625;51.762;14.320;2023-12-28T03:18:07;100298.81;;;5.19;100.00
7168;BME280;3625;51.762;14.320;2023-12-28T03:20:36;100304.03;;;5.28;100.00
7168;BME280;3625;51.762;14.320;2023-12-28T03:23:06;100318.84;;;5.40;100.00
7168;BME280;3625;51.762;14.320;2023-12-28T03:25:37;100309.25;;;5.42;100.00
7168;BME280;3625;51.762;14.320;2023-12-28T03:28:07;100309.16;;;5.62;100.00
7168;BME280;3625;51.762;14.320;2023-12-28T03:30:37;100137.34;;;4.68;100.00
7168;BME280;3625;51.762;14.320;2023-12-28T03:33:07;100315.22;;;5.75;100.00
7168;BME280;3625;51.762;14.320;2023-12-28T03:35:36;100318.66;;;5.84;100.00
7168;BME280;3625;51.762;14.320;2023-12-28T03:38:05;100310.78;;;5.84;100.00
7168;BME280;3625;51.762;14.320;2023-12-28T03:40:34;100318.66;;;5.90;100.00
7168;BME280;3625;51.762;14.320;2023-12-28T03:43:03;100313.41;;;5.93;100.00
7168;BME280;3625;51.762;14.320;2023-12-28T03:45:31;100261.78;;;5.86;100.00
7168;BME280;3625;51.762;14.320;2023-12-28T03:48:02;100307.84;;;6.39;100.00
7168;BME280;3625;51.762;14.320;2023-12-28T03:50:31;100281.56;;;6.39;100.00
7168;BME280;3625;51.762;14.320;2023-12-28T03:53:00;100307.69;;;6.57;100.00
7168;BME280;3625;51.762;14.320;2023-12-28T03:55:29;100320.72;;;6.66;100.00
7168;BME280;3625;51.762;14.320;2023-12-28T03:57:58;100284.03;;;6.57;100.00
7168;BME280;3625;51.762;14.320;2023-12-28T04:00:27;100330.19;;;6.89;100.00
7168;BME280;3625;51.762;14.320;2023-12-28T04:02:58;100313.53;;;6.87;100.00
7168;BME280;3625;51.762;14.320;2023-12-28T04:05:28;100318.78;;;6.90;100.00
7168;BME280;3625;51.762;14.320;2023-12-28T04:07:57;100310.81;;;6.99;100.00
7168;BME280;3625;51.762;14.320;2023-12-28T04:10:31;100230.53;;;6.66;97.54
7168;BME280;3625;51.762;14.320;2023-12-28T04:13:00;100316.78;;;7.13;97.34
7168;BME280;3625;51.762;14.320;2023-12-28T04:15:29;100274.00;;;6.97;95.19
7168;BME280;3625;51.762;14.320;2023-12-28T04:17:58;100331.44;;;7.35;94.41
7168;BME280;3625;51.762;14.320;2023-12-28T04:20:29;100309.66;;;7.24;94.50
7168;BME280;3625;51.762;14.320;2023-12-28T04:22:58;100327.00;;;7.40;95.73
7168;BME280;3625;51.762;14.320;2023-12-28T04:25:27;100241.38;;;7.15;92.34
7168;BME280;3625;51.762;14.320;2023-12-28T04:27:56;100334.63;;;7.63;91.76
7168;BME280;3625;51.762;14.320;2023-12-28T04:30:26;100299.63;;;7.55;91.67
7168;BME280;3625;51.762;14.320;2023-12-28T04:32:55;100282.09;;;7.54;89.55
7168;BME280;3625;51.762;14.320;2023-12-28T04:35:24;100323.81;;;7.86;89.27
7168;BME280;3625;51.762;14.320;2023-12-28T04:37:55;100347.44;;;7.92;89.50
7168;BME280;3625;51.762;14.320;2023-12-28T04:40:24;100338.56;;;7.99;89.60
7168;BME280;3625;51.762;14.320;2023-12-28T04:42:52;100338.50;;;8.04;90.65
7168;BME280;3625;51.762;14.320;2023-12-28T04:45:21;100345.34;;;8.15;86.60
7168;BME280;3625;51.762;14.320;2023-12-28T04:47:51;100344.28;;;8.30;84.30
7168;BME280;3625;51.762;14.320;2023-12-28T04:50:20;100338.81;;;8.44;84.27
7168;BME280;3625;51.762;14.320;2023-12-28T04:52:49;100333.41;;;8.51;82.77
7168;BME280;3625;51.762;14.320;2023-12-28T04:55:19;100361.25;;;8.70;83.23
7168;BME280;3625;51.762;14.320;2023-12-28T04:57:48;100347.84;;;8.83;85.18
7168;BME280;3625;51.762;14.320;2023-12-28T05:00:18;100356.47;;;8.92;85.29
7168;BME280;3625;51.762;14.320;2023-12-28T05:02:49;100263.31;;;8.40;90.17
7168;BME280;3625;51.762;14.320;2023-12-28T05:05:17;100364.22;;;9.01;86.29
7168;BME280;3625;51.762;14.320;2023-12-28T05:07:48;100360.63;;;9.07;86.40
7168;BME280;3625;51.762;14.320;2023-12-28T05:10:37;100373.78;;;9.08;88.47
7168;BME280;3625;51.762;14.320;2023-12-28T05:13:05;100387.66;;;9.20;86.71
7168;BME280;3625;51.762;14.320;2023-12-28T05:15:34;100335.38;;;8.92;84.63
7168;BME280;3625;51.762;14.320;2023-12-28T05:18:06;100375.09;;;9.34;81.78
7168;BME280;3625;51.762;14.320;2023-12-28T05:20:36;100364.34;;;9.43;78.41
7168;BME280;3625;51.762;14.320;2023-12-28T05:23:07;100370.38;;;9.51;79.40
7168;BME280;3625;51.762;14.320;2023-12-28T05:25:37;100295.56;;;9.06;80.98
7168;BME280;3625;51.762;14.320;2023-12-28T05:28:06;100386.28;;;9.46;83.85
7168;BME280;3625;51.762;14.320;2023-12-28T05:30:35;100381.97;;;9.42;85.72
7168;BME280;3625;51.762;14.320;2023-12-28T05:33:05;100394.31;;;9.42;86.76
7168;BME280;3625;51.762;14.320;2023-12-28T05:35:33;100402.22;;;9.42;87.31
7168;BME280;3625;51.762;14.320;2023-12-28T05:38:02;100396.97;;;9.40;88.22
7168;BME280;3625;51.762;14.320;2023-12-28T05:40:32;100401.44;;;9.37;90.52
7168;BME280;3625;51.762;14.320;2023-12-28T05:43:03;100401.44;;;9.37;90.79
7168;BME280;3625;51.762;14.320;2023-12-28T05:45:36;100404.03;;;9.38;92.29
7168;BME280;3625;51.762;14.320;2023-12-28T05:48:06;100390.00;;;9.36;93.30
7168;BME280;3625;51.762;14.320;2023-12-28T05:50:35;100377.69;;;9.35;94.00
7168;BME280;3625;51.762;14.320;2023-12-28T05:53:04;100388.25;;;9.35;93.86
7168;BME280;3625;51.762;14.320;2023-12-28T05:55:33;100394.53;;;9.30;94.20
7168;BME280;3625;51.762;14.320;2023-12-28T05:58:03;100396.16;;;9.35;93.56
7168;BME280;3625;51.762;14.320;2023-12-28T06:00:34;100398.22;;;9.20;92.94
7168;BME280;3625;51.762;14.320;2023-12-28T06:03:04;100418.94;;;9.42;91.20
7168;BME280;3625;51.762;14.320;2023-12-28T06:05:35;100426.66;;;9.52;90.75
7168;BME280;3625;51.762;14.320;2023-12-28T06:08:05;100433.66;;;9.54;91.24
7168;BME280;3625;51.762;14.320;2023-12-28T06:10:33;100413.66;;;9.42;89.58
7168;BME280;3625;51.762;14.320;2023-12-28T06:13:06;100426.38;;;9.68;87.55
7168;BME280;3625;51.762;14.320;2023-12-28T06:15:37;100419.28;;;9.70;87.84
7168;BME280;3625;51.762;14.320;2023-12-28T06:18:06;100346.88;;;9.36;86.04
7168;BME280;3625;51.762;14.320;2023-12-28T06:20:39;100414.13;;;9.63;86.54
7168;BME280;3625;51.762;14.320;2023-12-28T06:23:13;100431.84;;;9.58;87.25
7168;BME280;3625;51.762;14.320;2023-12-28T06:25:42;100418.84;;;9.47;86.88
7168;BME280;3625;51.762;14.320;2023-12-28T06:28:12;100450.22;;;9.64;86.97
7168;BME280;3625;51.762;14.320;2023-12-28T06:30:40;100421.38;;;9.52;86.14
7168;BME280;3625;51.762;14.320;2023-12-28T06:33:09;100448.41;;;9.67;86.97
7168;BME280;3625;51.762;14.320;2023-12-28T06:35:39;100441.13;;;9.78;85.05
7168;BME280;3625;51.762;14.320;2023-12-28T06:38:07;100336.41;;;9.31;85.55
7168;BME280;3625;51.762;14.320;2023-12-28T06:40:37;100435.94;;;9.75;84.83
7168;BME280;3625;51.762;14.320;2023-12-28T06:43:08;100427.16;;;9.72;84.97
7168;BME280;3625;51.762;14.320;2023-12-28T06:45:38;100438.75;;;9.65;86.07
7168;BME280;3625;51.762;14.320;2023-12-28T06:48:08;100375.34;;;9.19;86.11
7168;BME280;3625;51.762;14.320;2023-12-28T06:50:36;100368.38;;;9.16;86.73
7168;BME280;3625;51.762;14.320;2023-12-28T06:53:05;100443.44;;;9.51;87.45
7168;BME280;3625;51.762;14.320;2023-12-28T06:55:54;100448.84;;;9.43;88.92
7168;BME280;3625;51.762;14.320;2023-12-28T06:58:25;100430.34;;;9.43;89.75
7168;BME280;3625;51.762;14.320;2023-12-28T07:01:02;100442.72;;;9.41;89.85
7168;BME280;3625;51.762;14.320;2023-12-28T07:03:34;100416.63;;;9.24;90.18
7168;BME280;3625;51.762;14.320;2023-12-28T07:06:07;100407.91;;;9.18;90.57
7168;BME280;3625;51.762;14.320;2023-12-28T07:08:39;100397.75;;;8.96;92.31
7168;BME280;3625;51.762;14.320;2023-12-28T07:11:10;100458.63;;;9.36;92.66
7168;BME280;3625;51.762;14.320;2023-12-28T07:13:43;100464.00;;;9.33;92.21
7168;BME280;3625;51.762;14.320;2023-12-28T07:16:14;100466.69;;;9.29;92.86
7168;BME280;3625;51.762;14.320;2023-12-28T07:18:44;100474.56;;;9.32;93.28
7168;BME280;3625;51.762;14.320;2023-12-28T07:21:13;100424.03;;;9.01;94.15
7168;BME280;3625;51.762;14.320;2023-12-28T07:23:43;100473.69;;;9.33;93.07
7168;BME280;3625;51.762;14.320;2023-12-28T07:26:16;100474.59;;;9.29;93.23
7168;BME280;3625;51.762;14.320;2023-12-28T07:28:45;100481.69;;;9.27;93.47
7168;BME280;3625;51.762;14.320;2023-12-28T07:31:24;100490.53;;;9.24;93.84
7168;BME280;3625;51.762;14.320;2023-12-28T07:33:54;100492.38;;;9.19;94.53
7168;BME280;3625;51.762;14.320;2023-12-28T07:36:23;100484.44;;;9.19;95.41
7168;BME280;3625;51.762;14.320;2023-12-28T07:38:54;100479.13;;;9.22;94.13
7168;BME280;3625;51.762;14.320;2023-12-28T07:41:45;100475.56;;;9.25;93.28
7168;BME280;3625;51.762;14.320;2023-12-28T07:44:15;100500.22;;;9.25;94.04
7168;BME280;3625;51.762;14.320;2023-12-28T07:46:52;100502.91;;;9.21;94.64
7168;BME280;3625;51.762;14.320;2023-12-28T07:49:23;100496.75;;;9.20;94.94
7168;BME280;3625;51.762;14.320;2023-12-28T07:51:52;100489.69;;;9.22;95.18
7168;BME280;3625;51.762;14.320;2023-12-28T07:54:25;100494.88;;;9.27;94.93
7168;BME280;3625;51.762;14.320;2023-12-28T07:56:55;100504.50;;;9.31;94.50
7168;BME280;3625;51.762;14.320;2023-12-28T07:59:23;100501.00;;;9.30;94.98
7168;BME280;3625;51.762;14.320;2023-12-28T08:01:55;100482.63;;;9.23;95.18
7168;BME280;3625;51.762;14.320;2023-12-28T08:04:24;100476.59;;;9.16;95.05
7168;BME280;3625;51.762;14.320;2023-12-28T08:07:00;100503.63;;;9.30;94.87
7168;BME280;3625;51.762;14.320;2023-12-28T08:09:32;100478.28;;;9.19;95.31
7168;BME280;3625;51.762;14.320;2023-12-28T08:12:01;100506.22;;;9.33;95.85
7168;BME280;3625;51.762;14.320;2023-12-28T08:14:30;100503.63;;;9.30;96.24
7168;BME280;3625;51.762;14.320;2023-12-28T08:17:05;100512.31;;;9.37;96.07
7168;BME280;3625;51.762;14.320;2023-12-28T08:19:34;100502.59;;;9.39;96.09
7168;BME280;3625;51.762;14.320;2023-12-28T08:22:11;100514.84;;;9.43;95.97
7168;BME280;3625;51.762;14.320;2023-12-28T08:24:40;100515.69;;;9.46;95.41
7168;BME280;3625;51.762;14.320;2023-12-28T08:27:08;100516.56;;;9.47;95.98
7168;BME280;3625;51.762;14.320;2023-12-28T08:29:40;100518.28;;;9.50;95.70
7168;BME280;3625;51.762;14.320;2023-12-28T08:32:11;100518.19;;;9.54;95.61
7168;BME280;3625;51.762;14.320;2023-12-28T08:34:40;100522.53;;;9.58;96.30
7168;BME280;3625;51.762;14.320;2023-12-28T08:37:11;100513.72;;;9.59;96.68
7168;BME280;3625;51.762;14.320;2023-12-28T08:39:44;100521.59;;;9.61;97.35
7168;BME280;3625;51.762;14.320;2023-12-28T08:42:14;100524.13;;;9.67;96.77
7168;BME280;3625;51.762;14.320;2023-12-28T08:44:43;100498.69;;;9.61;96.55
7168;BME280;3625;51.762;14.320;2023-12-28T08:47:24;100499.56;;;9.62;96.72
7168;BME280;3625;51.762;14.320;2023-12-28T08:49:56;100477.84;;;9.44;96.56
7168;BME280;3625;51.762;14.320;2023-12-28T08:52:26;100523.97;;;9.76;96.77
7168;BME280;3625;51.762;14.320;2023-12-28T08:54:54;100521.34;;;9.76;97.06
7168;BME280;3625;51.762;14.320;2023-12-28T08:57:24;100528.38;;;9.77;98.20
7168;BME280;3625;51.762;14.320;2023-12-28T09:00:10;100531.81;;;9.79;98.22
7168;BME280;3625;51.762;14.320;2023-12-28T09:02:47;100534.44;;;9.82;98.84
7168;BME280;3625;51.762;14.320;2023-12-28T09:05:18;100454.31;;;9.34;98.92
7168;BME280;3625;51.762;14.320;2023-12-28T09:08:00;100498.81;;;9.54;99.65
7168;BME280;3625;51.762;14.320;2023-12-28T09:10:29;100546.78;;;9.80;99.23
7168;BME280;3625;51.762;14.320;2023-12-28T09:13:00;100559.09;;;9.82;99.15
7168;BME280;3625;51.762;14.320;2023-12-28T09:15:29;100560.84;;;9.83;98.76
7168;BME280;3625;51.762;14.320;2023-12-28T09:18:01;100564.31;;;9.86;99.25
7168;BME280;3625;51.762;14.320;2023-12-28T09:20:31;100566.03;;;9.87;99.59
7168;BME280;3625;51.762;14.320;2023-12-28T09:22:59;100535.53;;;9.69;99.89
7168;BME280;3625;51.762;14.320;2023-12-28T09:25:31;100502.34;;;9.54;100.00
7168;BME280;3625;51.762;14.320;2023-12-28T09:28:04;100574.78;;;9.92;100.00
7168;BME280;3625;51.762;14.320;2023-12-28T09:30:35;100573.88;;;9.93;100.00
7168;BME280;3625;51.762;14.320;2023-12-28T09:33:06;100569.63;;;9.86;100.00
7168;BME280;3625;51.762;14.320;2023-12-28T09:35:34;100571.25;;;9.91;100.00
7168;BME280;3625;51.762;14.320;2023-12-28T09:38:04;100553.81;;;9.82;100.00
7168;BME280;3625;51.762;14.320;2023-12-28T09:40:32;100542.31;;;9.85;100.00
7168;BME280;3625;51.762;14.320;2023-12-28T09:43:13;100569.31;;;10.02;100.00
7168;BME280;3625;51.762;14.320;2023-12-28T09:45:42;100571.03;;;10.03;100.00
7168;BME280;3625;51.762;14.320;2023-12-28T09:48:17;100566.53;;;10.08;100.00
7168;BME280;3625;51.762;14.320;2023-12-28T09:50:50;100564.75;;;10.10;100.00
7168;BME280;3625;51.762;14.320;2023-12-28T09:53:22;100562.97;;;10.11;100.00
7168;BME280;3625;51.762;14.320;2023-12-28T09:55:58;100563.03;;;10.08;100.00
7168;BME280;3625;51.762;14.320;2023-12-28T09:58:28;100564.69;;;10.12;100.00
7168;BME280;3625;51.762;14.320;2023-12-28T10:01:00;100555.94;;;10.11;100.00
7168;BME280;3625;51.762;14.320;2023-12-28T10:03:30;100558.56;;;10.11;100.00
7168;BME280;3625;51.762;14.320;2023-12-28T10:06:02;100555.88;;;10.13;100.00
7168;BME280;3625;51.762;14.320;2023-12-28T10:08:32;100564.66;;;10.13;100.00
7168;BME280;3625;51.762;14.320;2023-12-28T10:11:07;100520.19;;;9.91;100.00
7168;BME280;3625;51.762;14.320;2023-12-28T10:13:36;100541.06;;;10.04;100.00
7168;BME280;3625;51.762;14.320;2023-12-28T10:16:10;100527.91;;;10.01;100.00
7168;BME280;3625;51.762;14.320;2023-12-28T10:18:42;100557.56;;;10.18;100.00
7168;BME280;3625;51.762;14.320;2023-12-28T10:21:12;100511.28;;;9.95;100.00
7168;BME280;3625;51.762;14.320;2023-12-28T10:23:41;100492.09;;;9.85;100.00
7168;BME280;3625;51.762;14.320;2023-12-28T10:26:10;100536.44;;;10.15;100.00
7168;BME280;3625;51.762;14.320;2023-12-28T10:28:40;100542.47;;;10.25;100.00
7168;BME280;3625;51.762;14.320;2023-12-28T10:31:10;100549.41;;;10.29;100.00
7168;BME280;3625;51.762;14.320;2023-12-28T10:33:42;100416.00;;;9.59;100.00
7168;BME280;3625;51.762;14.320;2023-12-28T10:36:15;100555.50;;;10.34;100.00
7168;BME280;3625;51.762;14.320;2023-12-28T10:38:47;100470.03;;;9.88;100.00
7168;BME280;3625;51.762;14.320;2023-12-28T10:41:17;100551.06;;;10.36;100.00
7168;BME280;3625;51.762;14.320;2023-12-28T10:44:02;100561.50;;;10.42;100.00
7168;BME280;3625;51.762;14.320;2023-12-28T10:46:40;100458.81;;;9.76;100.00
7168;BME280;3625;51.762;14.320;2023-12-28T10:49:16;100564.25;;;10.38;100.00
7168;BME280;3625;51.762;14.320;2023-12-28T10:51:54;100465.94;;;9.71;100.00
7168;BME280;3625;51.762;14.320;2023-12-28T10:54:38;100529.59;;;10.04;100.00
7168;BME280;3625;51.762;14.320;2023-12-28T10:57:21;100539.22;;;10.08;100.00
7168;BME280;3625;51.762;14.320;2023-12-28T11:00:05;100562.78;;;10.21;100.00
7168;BME280;3625;51.762;14.320;2023-12-28T11:02:50;100478.34;;;9.66;100.00
7168;BME280;3625;51.762;14.320;2023-12-28T11:05:22;100555.25;;;9.99;100.00
7168;BME280;3625;51.762;14.320;2023-12-28T11:07:53;100528.31;;;9.78;100.00
7168;BME280;3625;51.762;14.320;2023-12-28T11:10:26;100528.47;;;9.69;100.00
7168;BME280;3625;51.762;14.320;2023-12-28T11:12:58;100479.75;;;9.36;100.00
7168;BME280;3625;51.762;14.320;2023-12-28T11:15:30;100545.28;;;9.65;100.00
7168;BME280;3625;51.762;14.320;2023-12-28T11:18:00;100386.91;;;8.58;100.00
7168;BME280;3625;51.762;14.320;2023-12-28T11:20:35;100556.91;;;9.55;100.00
7168;BME280;3625;51.762;14.320;2023-12-28T11:23:05;100556.13;;;9.50;100.00
7168;BME280;3625;51.762;14.320;2023-12-28T11:25:35;100550.13;;;9.40;100.00
7168;BME280;3625;51.762;14.320;2023-12-28T11:28:09;100547.63;;;9.30;100.00
7168;BME280;3625;51.762;14.320;2023-12-28T11:30:52;100546.88;;;9.22;100.00
7168;BME280;3625;51.762;14.320;2023-12-28T11:33:21;100490.22;;;8.87;100.00
7168;BME280;3625;51.762;14.320;2023-12-28T11:35:52;100498.94;;;8.92;100.00
7168;BME280;3625;51.762;14.320;2023-12-28T11:38:25;100529.56;;;9.04;100.00
7168;BME280;3625;51.762;14.320;2023-12-28T11:40:55;100508.72;;;8.86;100.00
7168;BME280;3625;51.762;14.320;2023-12-28T11:43:27;100488.66;;;8.74;100.00
7168;BME280;3625;51.762;14.320;2023-12-28T11:46:03;100533.94;;;9.06;100.00
7168;BME280;3625;51.762;14.320;2023-12-28T11:48:34;100454.59;;;8.59;100.00
7168;BME280;3625;51.762;14.320;2023-12-28T11:51:22;100355.88;;;8.15;100.00
7168;BME280;3625;51.762;14.320;2023-12-28T11:54:11;100490.81;;;9.06;100.00
7168;BME280;3625;51.762;14.320;2023-12-28T11:56:40;100531.88;;;9.25;100.00
7168;BME280;3625;51.762;14.320;2023-12-28T11:59:10;100498.78;;;9.01;100.00
7168;BME280;3625;51.762;14.320;2023-12-28T12:01:39;100537.09;;;9.27;100.00
7168;BME280;3625;51.762;14.320;2023-12-28T12:04:09;100535.22;;;9.35;100.00
7168;BME280;3625;51.762;14.320;2023-12-28T12:06:44;100503.75;;;9.23;100.00
7168;BME280;3625;51.762;14.320;2023-12-28T12:09:15;100528.13;;;9.40;100.00
7168;BME280;3625;51.762;14.320;2023-12-28T12:11:45;100534.19;;;9.45;100.00
7168;BME280;3625;51.762;14.320;2023-12-28T12:14:14;100546.44;;;9.51;100.00
7168;BME280;3625;51.762;14.320;2023-12-28T12:16:43;100535.91;;;9.48;100.00
7168;BME280;3625;51.762;14.320;2023-12-28T12:19:12;100536.91;;;9.42;100.00
7168;BME280;3625;51.762;14.320;2023-12-28T12:21:43;100531.75;;;9.33;100.00
7168;BME280;3625;51.762;14.320;2023-12-28T12:24:12;100482.16;;;8.98;100.00
7168;BME280;3625;51.762;14.320;2023-12-28T12:26:40;100312.19;;;8.02;100.00
7168;BME280;3625;51.762;14.320;2023-12-28T12:29:09;100418.69;;;8.49;100.00
7168;BME280;3625;51.762;14.320;2023-12-28T12:31:39;100528.28;;;9.29;100.00
7168;BME280;3625;51.762;14.320;2023-12-28T12:34:10;100494.25;;;9.13;100.00
7168;BME280;3625;51.762;14.320;2023-12-28T12:36:39;100536.03;;;9.41;100.00
7168;BME280;3625;51.762;14.320;2023-12-28T12:39:11;100545.72;;;9.41;100.00
7168;BME280;3625;51.762;14.320;2023-12-28T12:41:40;100544.81;;;9.42;100.00
7168;BME280;3625;51.762;14.320;2023-12-28T12:44:09;100500.28;;;9.19;100.00
7168;BME280;3625;51.762;14.320;2023-12-28T12:46:38;100541.22;;;9.46;100.00
7168;BME280;3625;51.762;14.320;2023-12-28T12:49:07;100491.34;;;9.28;100.00
7168;BME280;3625;51.762;14.320;2023-12-28T12:51:36;100534.13;;;9.50;100.00
7168;BME280;3625;51.762;14.320;2023-12-28T12:54:08;100530.59;;;9.49;100.00
7168;BME280;3625;51.762;14.320;2023-12-28T12:56:39;100535.72;;;9.58;100.00
7168;BME280;3625;51.762;14.320;2023-12-28T12:59:16;100532.34;;;9.50;100.00
7168;BME280;3625;51.762;14.320;2023-12-28T13:01:46;100528.03;;;9.43;100.00
7168;BME280;3625;51.762;14.320;2023-12-28T13:04:17;100523.75;;;9.37;100.00
7168;BME280;3625;51.762;14.320;2023-12-28T13:06:46;100500.25;;;9.21;100.00
7168;BME280;3625;51.762;14.320;2023-12-28T13:09:15;100515.91;;;9.33;100.00
7168;BME280;3625;51.762;14.320;2023-12-28T13:11:46;100510.56;;;9.36;100.00
7168;BME280;3625;51.762;14.320;2023-12-28T13:14:17;100503.63;;;9.30;100.00
7168;BME280;3625;51.762;14.320;2023-12-28T13:16:48;100503.69;;;9.26;100.00
7168;BME280;3625;51.762;14.320;2023-12-28T13:19:24;100489.84;;;9.13;100.00
7168;BME280;3625;51.762;14.320;2023-12-28T13:21:56;100507.28;;;9.23;100.00